createdAt,value
2018-07-31T00:00:05.685Z,14.63
2018-07-31T00:02:34.917Z,14.80
2018-07-31T00:05:03.661Z,15.75
2018-07-31T00:07:32.173Z,14.05
2018-07-31T00:10:00.970Z,15.18
2018-07-31T00:12:29.843Z,14.35
2018-07-31T00:14:58.365Z,15.05
2018-07-31T00:17:27.392Z,15.08
2018-07-31T00:19:55.879Z,15.65
2018-07-31T00:22:24.612Z,15.50
2018-07-31T00:24:53.451Z,15.95
2018-07-31T00:27:21.934Z,15.85
2018-07-31T00:29:50.403Z,15.93
2018-07-31T00:32:19.141Z,16.52
2018-07-31T00:34:47.974Z,16.15
2018-07-31T00:37:16.697Z,15.63
2018-07-31T00:39:46.489Z,16.30
2018-07-31T00:42:14.975Z,16.20
2018-07-31T00:44:43.556Z,17.27
2018-07-31T00:47:12.478Z,17.80
2018-07-31T00:49:41.098Z,17.55
2018-07-31T00:52:09.562Z,18.32
2018-07-31T00:54:38.538Z,18.37
2018-07-31T00:57:07.553Z,17.23
2018-07-31T00:59:36.013Z,16.30
2018-07-31T01:02:05.207Z,18.15
2018-07-31T01:04:33.798Z,18.82
2018-07-31T01:07:02.370Z,17.55
2018-07-31T01:09:31.631Z,19.77
2018-07-31T01:12:01.141Z,19.90
2018-07-31T01:14:29.740Z,18.42
2018-07-31T01:16:58.857Z,18.82
2018-07-31T01:19:27.370Z,18.17
2018-07-31T01:21:55.839Z,18.55
2018-07-31T01:24:25.129Z,18.23
2018-07-31T01:26:53.978Z,18.15
2018-07-31T01:29:22.473Z,17.45
2018-07-31T01:31:51.643Z,19.32
2018-07-31T01:34:20.111Z,18.67
2018-07-31T01:36:48.561Z,19.37
2018-07-31T01:39:17.639Z,18.52
2018-07-31T01:41:46.326Z,17.65
2018-07-31T01:44:14.905Z,17.80
2018-07-31T01:46:44.094Z,17.80
2018-07-31T01:49:12.873Z,18.42
2018-07-31T01:51:41.573Z,17.75
2018-07-31T01:54:10.878Z,17.77
2018-07-31T01:56:39.382Z,16.52
2018-07-31T01:59:07.921Z,17.73
2018-07-31T02:01:36.727Z,17.30
2018-07-31T02:04:05.313Z,16.60
2018-07-31T02:06:34.302Z,16.62
2018-07-31T02:09:03.366Z,17.27
2018-07-31T02:11:31.849Z,16.73
2018-07-31T02:14:00.313Z,15.90
2018-07-31T02:16:29.512Z,16.07
2018-07-31T02:18:58.001Z,15.90
2018-07-31T02:21:26.701Z,16.50
2018-07-31T02:23:56.125Z,18.55
2018-07-31T02:26:24.600Z,19.27
2018-07-31T02:28:53.153Z,17.42
2018-07-31T02:31:22.241Z,18.20
2018-07-31T02:33:50.717Z,17.20
2018-07-31T02:36:19.450Z,18.20
2018-07-31T02:38:48.542Z,19.15
2018-07-31T02:41:17.125Z,18.62
2018-07-31T02:43:45.566Z,17.23
2018-07-31T02:46:14.606Z,17.23
2018-07-31T02:48:43.089Z,15.53
2018-07-31T02:51:11.569Z,15.83
2018-07-31T02:53:47.272Z,15.63
2018-07-31T02:56:15.973Z,16.17
2018-07-31T02:58:44.483Z,16.27
2018-07-31T03:01:13.410Z,15.90
2018-07-31T03:03:41.854Z,16.20
2018-07-31T03:06:10.321Z,16.85
2018-07-31T03:08:39.586Z,17.70
2018-07-31T03:11:08.113Z,17.27
2018-07-31T03:13:36.767Z,17.12
2018-07-31T03:16:05.801Z,16.02
2018-07-31T03:18:34.221Z,16.02
2018-07-31T03:21:02.696Z,14.20
2018-07-31T03:23:31.699Z,14.58
2018-07-31T03:26:00.796Z,14.98
2018-07-31T03:28:29.389Z,14.53
2018-07-31T03:30:58.677Z,14.10
2018-07-31T03:33:27.097Z,13.58
2018-07-31T03:35:55.867Z,14.25
2018-07-31T03:38:24.604Z,14.03
2018-07-31T03:40:53.053Z,16.00
2018-07-31T03:43:21.494Z,14.87
2018-07-31T03:45:50.458Z,13.28
2018-07-31T03:48:18.980Z,12.98
2018-07-31T03:50:47.413Z,12.55
2018-07-31T03:53:16.169Z,11.95
2018-07-31T03:55:44.620Z,13.32
2018-07-31T03:58:13.082Z,12.70
2018-07-31T04:00:41.721Z,12.37
2018-07-31T04:03:10.169Z,12.10
2018-07-31T04:05:38.712Z,10.95
2018-07-31T04:08:07.733Z,9.73
2018-07-31T04:10:36.204Z,10.70
2018-07-31T04:13:04.661Z,10.40
2018-07-31T04:15:34.076Z,10.45
2018-07-31T04:18:02.530Z,10.40
2018-07-31T04:20:30.987Z,10.88
2018-07-31T04:23:00.097Z,10.43
2018-07-31T04:25:28.584Z,11.03
2018-07-31T04:27:57.049Z,10.70
2018-07-31T04:30:26.144Z,10.43
2018-07-31T04:32:54.704Z,11.18
2018-07-31T04:35:23.170Z,10.03
2018-07-31T04:37:51.894Z,10.13
2018-07-31T04:40:20.453Z,9.58
2018-07-31T04:42:49.070Z,9.88
2018-07-31T04:45:17.699Z,10.20
2018-07-31T04:47:46.165Z,10.43
2018-07-31T04:50:14.656Z,10.20
2018-07-31T04:52:43.413Z,9.73
2018-07-31T04:55:11.917Z,10.03
2018-07-31T04:57:40.640Z,9.80
2018-07-31T05:00:09.839Z,9.68
2018-07-31T05:02:39.179Z,10.45
2018-07-31T05:05:07.649Z,10.08
2018-07-31T05:07:39.501Z,10.32
2018-07-31T05:10:13.129Z,9.78
2018-07-31T05:12:43.952Z,9.85
2018-07-31T05:15:12.477Z,10.05
2018-07-31T05:17:41.024Z,10.25
2018-07-31T05:20:10.980Z,10.58
2018-07-31T05:22:40.618Z,10.72
2018-07-31T05:25:09.107Z,10.85
2018-07-31T05:27:38.193Z,10.90
2018-07-31T05:30:08.649Z,10.88
2018-07-31T05:32:37.331Z,11.05
2018-07-31T05:35:06.576Z,11.65
2018-07-31T05:37:35.218Z,10.53
2018-07-31T05:40:03.742Z,11.35
2018-07-31T05:42:32.407Z,10.82
2018-07-31T05:45:00.842Z,10.45
2018-07-31T05:47:30.169Z,11.22
2018-07-31T05:49:59.065Z,10.72
2018-07-31T05:52:27.639Z,9.78
2018-07-31T05:54:56.497Z,9.40
2018-07-31T05:57:25.746Z,9.08
2018-07-31T05:59:54.342Z,9.53
2018-07-31T06:02:23.096Z,9.95
2018-07-31T06:04:51.745Z,9.18
2018-07-31T06:07:20.465Z,9.48
2018-07-31T06:09:48.903Z,10.65
2018-07-31T06:12:17.533Z,9.35
2018-07-31T06:14:46.122Z,8.90
2018-07-31T06:17:14.690Z,9.45
2018-07-31T06:19:43.401Z,9.95
2018-07-31T06:22:11.881Z,9.70
2018-07-31T06:24:40.324Z,9.00
2018-07-31T06:27:09.568Z,9.45
2018-07-31T06:29:38.285Z,9.25
2018-07-31T06:32:06.805Z,9.35
2018-07-31T06:34:35.766Z,9.55
2018-07-31T06:37:04.389Z,8.95
2018-07-31T06:39:32.878Z,9.30
2018-07-31T06:42:01.886Z,9.38
2018-07-31T06:44:30.590Z,8.60
2018-07-31T06:46:59.339Z,8.83
2018-07-31T06:49:28.494Z,8.60
2018-07-31T06:51:56.925Z,8.48
2018-07-31T06:54:25.351Z,7.90
2018-07-31T06:56:54.274Z,7.90
2018-07-31T06:59:22.741Z,7.95
2018-07-31T07:01:51.189Z,8.78
2018-07-31T07:04:19.995Z,8.60
2018-07-31T07:06:48.457Z,8.28
2018-07-31T07:09:17.254Z,8.75
2018-07-31T07:11:46.051Z,8.65
2018-07-31T07:14:14.609Z,8.58
2018-07-31T07:16:43.308Z,9.53
2018-07-31T07:19:12.417Z,8.45
2018-07-31T07:21:40.913Z,9.78
2018-07-31T07:24:09.650Z,8.55
2018-07-31T07:26:38.837Z,8.10
2018-07-31T07:29:07.335Z,8.50
2018-07-31T07:31:35.900Z,7.42
2018-07-31T07:34:05.262Z,8.23
2018-07-31T07:36:33.696Z,7.95
2018-07-31T07:39:07.357Z,7.28
2018-07-31T07:41:35.865Z,7.95
2018-07-31T07:44:04.379Z,7.60
2018-07-31T07:46:32.940Z,7.92
2018-07-31T07:49:01.693Z,7.85
2018-07-31T07:51:30.437Z,7.35
2018-07-31T07:53:59.517Z,7.00
2018-07-31T07:56:28.009Z,7.45
2018-07-31T07:58:56.831Z,7.05
2018-07-31T08:01:27.847Z,7.80
2018-07-31T08:03:56.400Z,7.30
2018-07-31T08:06:25.066Z,7.05
2018-07-31T08:08:54.729Z,7.30
2018-07-31T08:11:24.131Z,6.90
2018-07-31T08:13:52.746Z,6.97
2018-07-31T08:16:22.067Z,6.90
2018-07-31T08:18:50.535Z,9.88
2018-07-31T08:21:19.054Z,7.75
2018-07-31T08:23:48.431Z,6.80
2018-07-31T08:26:16.930Z,6.70
2018-07-31T08:28:46.338Z,5.80
2018-07-31T08:31:15.037Z,5.90
2018-07-31T08:33:43.651Z,9.33
2018-07-31T08:36:12.089Z,6.85
2018-07-31T08:38:41.883Z,5.97
2018-07-31T08:41:10.369Z,6.60
2018-07-31T08:43:38.850Z,6.53
2018-07-31T08:46:08.382Z,6.37
2018-07-31T08:48:36.825Z,5.80
2018-07-31T08:51:05.627Z,5.58
2018-07-31T08:53:34.366Z,5.50
2018-07-31T08:56:02.932Z,5.75
2018-07-31T08:58:31.369Z,6.00
2018-07-31T09:01:01.089Z,5.05
2018-07-31T09:03:30.108Z,5.15
2018-07-31T09:05:58.624Z,5.10
2018-07-31T09:08:27.884Z,5.30
2018-07-31T09:10:56.445Z,4.97
2018-07-31T09:13:24.982Z,6.28
2018-07-31T09:15:54.770Z,7.00
2018-07-31T09:18:23.229Z,4.85
2018-07-31T09:20:51.733Z,27.37
2018-07-31T09:23:20.813Z,6.83
2018-07-31T09:25:49.303Z,6.85
2018-07-31T09:28:18.690Z,4.72
2018-07-31T09:30:52.849Z,5.33
2018-07-31T09:33:21.745Z,8.75
2018-07-31T09:35:50.542Z,7.87
2018-07-31T09:38:19.374Z,4.22
2018-07-31T09:40:47.853Z,8.13
2018-07-31T09:43:16.317Z,4.55
2018-07-31T09:45:45.140Z,4.62
2018-07-31T09:48:14.097Z,5.10
2018-07-31T09:50:42.630Z,5.05
2018-07-31T09:53:11.282Z,9.15
2018-07-31T09:55:39.857Z,4.33
2018-07-31T09:58:08.324Z,4.10
2018-07-31T10:00:42.465Z,3.83
2018-07-31T10:03:11.271Z,6.95
2018-07-31T10:05:40.013Z,8.98
2018-07-31T10:08:13.183Z,4.28
2018-07-31T10:10:48.942Z,3.67
2018-07-31T10:13:18.235Z,4.08
2018-07-31T10:15:46.748Z,4.03
2018-07-31T10:18:15.412Z,12.00
2018-07-31T10:20:44.541Z,9.55
2018-07-31T10:23:13.587Z,6.50
2018-07-31T10:25:42.585Z,6.03
2018-07-31T10:28:11.268Z,4.45
2018-07-31T10:30:39.790Z,4.03
2018-07-31T10:33:08.463Z,6.80
2018-07-31T10:35:37.314Z,4.92
2018-07-31T10:38:06.918Z,4.30
2018-07-31T10:40:35.445Z,4.10
2018-07-31T10:43:04.266Z,8.38
2018-07-31T10:45:32.808Z,4.50
2018-07-31T10:48:02.359Z,4.95
2018-07-31T10:50:31.234Z,4.12
2018-07-31T10:52:59.934Z,4.20
2018-07-31T10:55:28.839Z,4.30
2018-07-31T10:57:57.629Z,5.00
2018-07-31T11:00:26.094Z,3.95
2018-07-31T11:02:54.648Z,4.25
2018-07-31T11:05:23.609Z,4.40
2018-07-31T11:07:52.073Z,4.42
2018-07-31T11:10:20.590Z,4.33
2018-07-31T11:12:49.413Z,4.33
2018-07-31T11:15:19.010Z,4.35
2018-07-31T11:17:48.049Z,4.15
2018-07-31T11:20:17.655Z,5.70
2018-07-31T11:22:46.121Z,5.20
2018-07-31T11:25:15.021Z,4.20
2018-07-31T11:27:44.270Z,5.20
2018-07-31T11:30:12.737Z,5.67
2018-07-31T11:32:41.358Z,5.80
2018-07-31T11:35:10.321Z,5.87
2018-07-31T11:37:38.811Z,4.60
2018-07-31T11:40:07.496Z,4.12
2018-07-31T11:42:36.378Z,4.25
2018-07-31T11:45:05.677Z,4.28
2018-07-31T11:47:34.710Z,4.20
2018-07-31T11:50:03.416Z,4.40
2018-07-31T11:52:32.740Z,4.30
2018-07-31T11:55:01.691Z,4.05
2018-07-31T11:57:31.258Z,4.28
2018-07-31T11:59:59.725Z,4.45
2018-07-31T12:02:28.501Z,5.40
2018-07-31T12:04:57.957Z,4.72
2018-07-31T12:07:26.413Z,5.45
2018-07-31T12:09:55.041Z,4.50
2018-07-31T12:12:23.977Z,5.70
2018-07-31T12:14:52.486Z,5.45
2018-07-31T12:17:20.934Z,5.10
2018-07-31T12:19:49.510Z,5.25
2018-07-31T12:22:17.965Z,4.87
2018-07-31T12:24:46.730Z,4.87
2018-07-31T12:27:15.483Z,4.70
2018-07-31T12:29:43.941Z,4.62
2018-07-31T12:32:12.681Z,4.97
2018-07-31T12:34:41.846Z,4.53
2018-07-31T12:37:11.166Z,6.83
2018-07-31T12:39:39.717Z,5.12
2018-07-31T12:42:09.186Z,5.12
2018-07-31T12:44:37.739Z,5.58
2018-07-31T12:47:06.291Z,5.47
2018-07-31T12:49:35.216Z,5.78
2018-07-31T12:52:03.682Z,5.05
2018-07-31T12:54:32.667Z,5.05
2018-07-31T12:57:01.241Z,4.53
2018-07-31T12:59:29.709Z,4.95
2018-07-31T13:01:58.439Z,4.65
2018-07-31T13:04:27.601Z,4.45
2018-07-31T13:06:56.174Z,4.72
2018-07-31T13:09:24.625Z,4.78
2018-07-31T13:11:53.410Z,4.10
2018-07-31T13:14:21.915Z,4.55
2018-07-31T13:16:50.377Z,4.78
2018-07-31T13:19:19.161Z,5.10
2018-07-31T13:21:47.609Z,4.65
2018-07-31T13:24:16.513Z,4.45
2018-07-31T13:26:45.470Z,4.28
2018-07-31T13:29:13.913Z,4.17
2018-07-31T13:31:42.379Z,4.17
2018-07-31T13:34:11.213Z,4.45
2018-07-31T13:36:39.673Z,4.20
2018-07-31T13:39:10.029Z,4.05
2018-07-31T13:41:38.862Z,3.90
2018-07-31T13:44:08.174Z,4.05
2018-07-31T13:46:37.150Z,3.62
2018-07-31T13:49:06.135Z,4.17
2018-07-31T13:51:34.609Z,4.28
2018-07-31T13:54:03.249Z,3.90
2018-07-31T13:56:32.138Z,4.00
2018-07-31T13:59:00.714Z,3.95
2018-07-31T14:01:29.592Z,4.37
2018-07-31T14:03:58.513Z,4.05
2018-07-31T14:06:26.965Z,3.98
2018-07-31T14:08:55.409Z,4.00
2018-07-31T14:11:24.253Z,4.25
2018-07-31T14:13:52.772Z,4.28
2018-07-31T14:16:21.154Z,4.30
2018-07-31T14:18:50.333Z,4.08
2018-07-31T14:21:18.770Z,3.90
2018-07-31T14:23:47.253Z,3.77
2018-07-31T14:26:16.057Z,4.75
2018-07-31T14:28:44.509Z,4.25
2018-07-31T14:31:12.978Z,4.65
2018-07-31T14:33:41.805Z,4.20
2018-07-31T14:36:10.306Z,3.80
2018-07-31T14:38:38.989Z,4.30
2018-07-31T14:41:07.873Z,4.08
2018-07-31T14:43:36.361Z,3.92
2018-07-31T14:46:05.010Z,3.58
2018-07-31T14:48:33.913Z,3.33
2018-07-31T14:51:02.345Z,3.55
2018-07-31T14:53:31.017Z,3.87
2018-07-31T14:56:00.346Z,3.83
2018-07-31T14:58:29.457Z,3.70
2018-07-31T15:00:58.433Z,3.60
2018-07-31T15:03:27.574Z,3.30
2018-07-31T15:05:56.473Z,3.37
2018-07-31T15:08:25.004Z,3.30
2018-07-31T15:10:53.694Z,3.40
2018-07-31T15:13:22.153Z,3.08
2018-07-31T15:15:50.621Z,3.42
2018-07-31T15:18:19.538Z,3.35
2018-07-31T15:20:47.981Z,3.02
2018-07-31T15:23:16.437Z,3.20
2018-07-31T15:25:45.121Z,2.90
2018-07-31T15:28:13.758Z,2.70
2018-07-31T15:30:42.250Z,2.72
2018-07-31T15:33:11.182Z,2.95
2018-07-31T15:35:39.699Z,3.12
2018-07-31T15:38:08.431Z,3.62
2018-07-31T15:40:37.337Z,3.25
2018-07-31T15:43:05.992Z,3.60
2018-07-31T15:45:34.708Z,3.30
2018-07-31T15:48:03.931Z,3.12
2018-07-31T15:50:32.367Z,3.37
2018-07-31T15:53:00.857Z,3.42
2018-07-31T15:55:30.024Z,3.60
2018-07-31T15:57:58.716Z,2.90
2018-07-31T16:00:27.954Z,2.98
2018-07-31T16:02:56.629Z,3.50
2018-07-31T16:05:25.109Z,5.15
2018-07-31T16:07:53.630Z,5.22
2018-07-31T16:10:22.385Z,5.08
2018-07-31T16:12:50.947Z,4.75
2018-07-31T16:15:19.508Z,4.10
2018-07-31T16:17:48.125Z,3.72
2018-07-31T16:20:16.793Z,7.50
2018-07-31T16:22:45.365Z,4.17
2018-07-31T16:25:14.559Z,4.50
2018-07-31T16:27:43.036Z,7.50
2018-07-31T16:30:11.685Z,4.65
2018-07-31T16:32:40.850Z,4.45
2018-07-31T16:35:09.417Z,5.35
2018-07-31T16:37:37.984Z,3.80
2018-07-31T16:40:06.643Z,5.85
2018-07-31T16:42:35.108Z,4.20
2018-07-31T16:45:06.326Z,4.10
2018-07-31T16:47:34.870Z,4.10
2018-07-31T16:50:03.893Z,7.87
2018-07-31T16:52:32.398Z,5.65
2018-07-31T16:55:01.477Z,4.67
2018-07-31T16:57:30.110Z,4.55
2018-07-31T17:00:00.008Z,4.33
2018-07-31T17:02:28.771Z,6.47
2018-07-31T17:04:57.244Z,6.62
2018-07-31T17:07:26.602Z,5.42
2018-07-31T17:09:55.744Z,9.48
2018-07-31T17:12:24.315Z,7.47
2018-07-31T17:14:53.800Z,8.53
2018-07-31T17:17:22.414Z,10.08
2018-07-31T17:19:50.883Z,11.22
2018-07-31T17:22:19.569Z,4.87
2018-07-31T17:24:50.089Z,4.47
2018-07-31T17:27:19.026Z,4.60
2018-07-31T17:29:47.817Z,5.17
2018-07-31T17:32:16.485Z,5.03
2018-07-31T17:34:45.075Z,5.50
2018-07-31T17:37:13.802Z,4.83
2018-07-31T17:39:42.422Z,5.20
2018-07-31T17:42:10.925Z,5.28
2018-07-31T17:44:39.432Z,5.22
2018-07-31T17:47:08.181Z,5.62
2018-07-31T17:49:36.645Z,5.75
2018-07-31T17:52:06.335Z,5.55
2018-07-31T17:54:35.148Z,6.47
2018-07-31T17:57:04.541Z,5.55
2018-07-31T17:59:33.585Z,6.00
2018-07-31T18:02:02.717Z,5.42
2018-07-31T18:04:32.204Z,6.03
2018-07-31T18:07:02.091Z,6.10
2018-07-31T18:09:32.003Z,5.60
2018-07-31T18:12:01.526Z,5.47
2018-07-31T18:14:30.980Z,6.40
2018-07-31T18:17:00.210Z,6.25
2018-07-31T18:19:28.801Z,6.17
2018-07-31T18:21:57.508Z,5.70
2018-07-31T18:24:26.135Z,6.08
2018-07-31T18:26:54.613Z,6.72
2018-07-31T18:29:23.332Z,6.25
2018-07-31T18:31:52.193Z,6.15
2018-07-31T18:34:21.581Z,6.92
2018-07-31T18:36:50.215Z,6.97
2018-07-31T18:39:19.474Z,6.90
2018-07-31T18:41:47.956Z,6.78
2018-07-31T18:44:16.889Z,6.10
2018-07-31T18:46:45.530Z,5.90
2018-07-31T18:49:14.001Z,6.47
2018-07-31T18:51:42.634Z,6.15
2018-07-31T18:54:11.646Z,6.17
2018-07-31T18:56:40.521Z,5.62
2018-07-31T18:59:09.308Z,6.08
2018-07-31T19:01:38.308Z,5.78
2018-07-31T19:04:07.133Z,5.83
2018-07-31T19:06:35.734Z,5.90
2018-07-31T19:09:05.945Z,6.05
2018-07-31T19:11:34.411Z,5.47
2018-07-31T19:14:02.972Z,5.85
2018-07-31T19:16:31.963Z,5.70
2018-07-31T19:19:00.657Z,6.12
2018-07-31T19:21:29.621Z,6.08
2018-07-31T19:23:58.264Z,6.35
2018-07-31T19:26:26.781Z,6.33
2018-07-31T19:28:55.790Z,8.23
2018-07-31T19:31:27.138Z,6.62
2018-07-31T19:33:56.068Z,6.40
2018-07-31T19:36:24.470Z,6.55
2018-07-31T19:38:53.564Z,7.35
2018-07-31T19:41:22.524Z,6.90
2018-07-31T19:43:51.062Z,6.72
2018-07-31T19:46:19.931Z,7.60
2018-07-31T19:48:48.748Z,7.30
2018-07-31T19:51:17.420Z,8.30
2018-07-31T19:53:46.241Z,7.75
2018-07-31T19:56:14.909Z,7.30
2018-07-31T19:58:43.378Z,7.03
2018-07-31T20:01:11.961Z,7.67
2018-07-31T20:03:40.832Z,8.18
2018-07-31T20:06:09.355Z,8.13
2018-07-31T20:08:38.597Z,7.83
2018-07-31T20:11:07.774Z,8.90
2018-07-31T20:13:36.243Z,8.78
2018-07-31T20:16:05.983Z,8.33
2018-07-31T20:18:34.745Z,8.33
2018-07-31T20:21:03.752Z,8.30
2018-07-31T20:23:33.185Z,8.80
2018-07-31T20:26:01.897Z,9.95
2018-07-31T20:28:30.345Z,8.68
2018-07-31T20:30:59.041Z,9.00
2018-07-31T20:33:28.004Z,9.35
2018-07-31T20:35:56.496Z,8.50
2018-07-31T20:38:25.340Z,9.18
2018-07-31T20:40:54.531Z,9.68
2018-07-31T20:43:23.136Z,10.08
2018-07-31T20:47:41.323Z,9.88
2018-07-31T20:50:09.873Z,9.28
2018-07-31T20:52:38.326Z,8.78
2018-07-31T20:55:07.297Z,8.68
2018-07-31T20:57:36.289Z,8.98
2018-07-31T21:00:05.883Z,9.73
2018-07-31T21:02:34.968Z,9.93
2018-07-31T21:05:03.684Z,9.18
2018-07-31T21:07:32.138Z,9.20
2018-07-31T21:10:01.082Z,9.23
2018-07-31T21:12:30.202Z,9.43
2018-07-31T21:14:59.074Z,10.08
2018-07-31T21:17:28.926Z,10.05
2018-07-31T21:19:57.605Z,9.75
2018-07-31T21:22:26.809Z,9.25
2018-07-31T21:26:48.950Z,10.45
2018-07-31T21:29:17.382Z,10.58
2018-07-31T21:31:46.081Z,10.10
2018-07-31T21:34:15.018Z,9.95
2018-07-31T21:36:43.605Z,10.32
2018-07-31T21:39:13.416Z,10.43
2018-07-31T21:41:42.898Z,10.32
2018-07-31T21:44:11.821Z,9.90
2018-07-31T21:46:40.350Z,10.28
2018-07-31T21:49:09.631Z,10.05
2018-07-31T21:51:40.994Z,9.90
2018-07-31T21:54:09.475Z,9.85
2018-07-31T21:56:38.705Z,10.03
2018-07-31T21:59:07.588Z,10.90
2018-07-31T22:01:36.129Z,10.32
2018-07-31T22:04:05.124Z,10.75
2018-07-31T22:06:33.797Z,10.03
2018-07-31T22:09:02.325Z,10.38
2018-07-31T22:11:32.049Z,10.72
2018-07-31T22:14:01.581Z,10.98
2018-07-31T22:16:30.534Z,11.30
2018-07-31T22:18:59.692Z,11.10
2018-07-31T22:21:28.424Z,10.63
2018-07-31T22:23:56.930Z,10.68
2018-07-31T22:26:26.056Z,11.75
2018-07-31T22:28:54.504Z,10.82
2018-07-31T22:31:23.277Z,11.05
2018-07-31T22:33:52.057Z,11.28
2018-07-31T22:36:20.630Z,10.93
2018-07-31T22:38:49.365Z,11.50
2018-07-31T22:41:18.458Z,11.70
2018-07-31T22:43:46.898Z,11.93
2018-07-31T22:46:15.412Z,12.13
2018-07-31T22:48:44.469Z,11.40
2018-07-31T22:51:12.922Z,11.55
2018-07-31T22:53:41.488Z,11.28
2018-07-31T22:56:10.833Z,11.45
2018-07-31T22:58:39.657Z,12.43
2018-07-31T23:01:08.501Z,12.23
2018-07-31T23:03:37.512Z,12.30
2018-07-31T23:06:05.992Z,12.28
2018-07-31T23:08:34.473Z,11.95
2018-07-31T23:11:03.568Z,11.93
2018-07-31T23:13:32.037Z,11.45
2018-07-31T23:16:01.440Z,12.33
2018-07-31T23:18:30.522Z,11.83
2018-07-31T23:20:58.985Z,12.53
2018-07-31T23:23:27.486Z,11.70
2018-07-31T23:25:56.489Z,11.43
2018-07-31T23:28:24.917Z,12.35
2018-07-31T23:30:53.384Z,11.93
2018-07-31T23:33:22.349Z,11.90
2018-07-31T23:35:50.785Z,12.93
2018-07-31T23:38:19.269Z,12.68
2018-07-31T23:40:48.405Z,12.53
2018-07-31T23:43:16.850Z,12.13
2018-07-31T23:45:46.298Z,12.33
2018-07-31T23:48:15.591Z,11.85
2018-07-31T23:50:44.351Z,11.60
2018-07-31T23:53:12.857Z,12.45
2018-07-31T23:55:41.746Z,12.10
2018-07-31T23:58:10.201Z,11.78
